createdAt,value
2016-09-30T00:02:04.262Z,45.9
2016-09-30T00:07:04.074Z,45.9
2016-09-30T00:12:03.626Z,46.0
2016-09-30T00:17:04.018Z,45.9
2016-09-30T00:22:03.977Z,45.9
2016-09-30T00:27:03.388Z,45.5
2016-09-30T00:32:04.042Z,45.5
2016-09-30T00:37:04.345Z,45.5
2016-09-30T00:42:03.653Z,45.5
2016-09-30T00:47:04.215Z,45.5
2016-09-30T00:52:03.573Z,45.5
2016-09-30T00:57:03.891Z,45.5
2016-09-30T01:02:04.316Z,45.5
2016-09-30T01:07:03.904Z,45.5
2016-09-30T01:12:04.316Z,45.4
2016-09-30T01:17:03.655Z,45.5
2016-09-30T01:22:04.335Z,45.7
2016-09-30T01:27:03.524Z,45.6
2016-09-30T01:32:03.860Z,45.7
2016-09-30T01:37:04.119Z,45.8
2016-09-30T01:42:03.433Z,45.8
2016-09-30T01:47:03.848Z,45.8
2016-09-30T01:52:03.406Z,45.8
2016-09-30T01:57:03.651Z,45.8
2016-09-30T02:02:04.037Z,45.9
2016-09-30T02:07:03.735Z,45.8
2016-09-30T02:12:04.130Z,45.7
2016-09-30T02:17:03.582Z,45.7
2016-09-30T02:22:04.239Z,45.7
2016-09-30T02:27:03.786Z,45.6
2016-09-30T02:32:04.261Z,45.5
2016-09-30T02:37:03.680Z,45.6
2016-09-30T02:42:03.991Z,45.5
2016-09-30T02:47:04.214Z,45.6
2016-09-30T02:52:03.506Z,45.6
2016-09-30T02:57:03.650Z,45.6
2016-09-30T03:02:04.002Z,45.6
2016-09-30T03:07:04.194Z,45.6
2016-09-30T03:12:03.868Z,45.7
2016-09-30T03:17:04.298Z,45.7
2016-09-30T03:22:03.578Z,45.6
2016-09-30T03:27:03.847Z,45.7
2016-09-30T03:32:04.198Z,45.6
2016-09-30T03:37:04.122Z,45.6
2016-09-30T03:42:03.579Z,45.7
2016-09-30T03:47:03.943Z,45.6
2016-09-30T03:52:03.938Z,45.6
2016-09-30T03:57:04.222Z,45.6
2016-09-30T04:02:03.679Z,45.5
2016-09-30T04:07:03.928Z,45.6
2016-09-30T04:12:04.270Z,45.5
2016-09-30T04:17:03.925Z,45.6
2016-09-30T04:22:03.950Z,45.6
2016-09-30T04:27:04.289Z,45.7
2016-09-30T04:32:04.502Z,45.6
2016-09-30T04:37:03.642Z,45.6
2016-09-30T04:42:03.837Z,45.6
2016-09-30T04:47:11.016Z,45.7
2016-09-30T04:52:03.625Z,45.6
2016-09-30T04:57:04.036Z,45.6
2016-09-30T05:02:31.516Z,45.6
2016-09-30T05:07:03.593Z,45.6
2016-09-30T05:12:04.260Z,45.7
2016-09-30T05:17:32.694Z,45.7
2016-09-30T05:22:03.996Z,45.7
2016-09-30T05:27:04.364Z,45.6
2016-09-30T05:32:31.276Z,45.6
2016-09-30T05:37:04.334Z,45.6
2016-09-30T05:42:04.238Z,45.9
2016-09-30T05:47:32.245Z,45.8
2016-09-30T05:52:03.774Z,45.6
2016-09-30T05:57:03.669Z,45.6
2016-09-30T06:02:31.247Z,45.7
2016-09-30T06:07:03.585Z,45.5
2016-09-30T06:12:04.144Z,45.3
2016-09-30T06:17:32.307Z,45.2
2016-09-30T06:22:04.002Z,45.2
2016-09-30T06:27:03.961Z,45.1
2016-09-30T06:32:29.338Z,45.1
2016-09-30T06:37:03.731Z,45.1
2016-09-30T06:42:03.445Z,45.0
2016-09-30T06:47:32.505Z,45.0
2016-09-30T06:52:04.001Z,45.1
2016-09-30T06:57:03.973Z,45.0
2016-09-30T07:02:31.405Z,44.9
2016-09-30T07:07:03.585Z,45.0
2016-09-30T07:12:04.203Z,45.0
2016-09-30T07:17:37.572Z,44.8
2016-09-30T07:22:03.553Z,44.7
2016-09-30T07:27:04.233Z,44.6
2016-09-30T07:32:34.625Z,44.6
2016-09-30T07:37:03.533Z,44.5
2016-09-30T07:42:03.983Z,44.6
2016-09-30T07:47:37.238Z,45.2
2016-09-30T07:52:03.947Z,45.0
2016-09-30T07:57:04.094Z,45.2
2016-09-30T08:02:32.941Z,45.3
2016-09-30T08:07:03.603Z,45.2
2016-09-30T08:12:03.728Z,45.1
2016-09-30T08:17:40.178Z,45.3
2016-09-30T08:22:03.895Z,45.7
2016-09-30T08:27:04.286Z,45.7
2016-09-30T08:32:32.127Z,46.6
2016-09-30T08:37:04.033Z,46.5
2016-09-30T08:42:03.645Z,46.8
2016-09-30T08:47:32.661Z,46.8
2016-09-30T08:52:03.777Z,46.8
2016-09-30T08:57:04.111Z,46.8
2016-09-30T09:02:35.596Z,46.6
2016-09-30T09:07:03.707Z,46.4
2016-09-30T09:12:03.636Z,46.2
2016-09-30T09:17:32.359Z,46.2
2016-09-30T09:22:03.718Z,45.9
2016-09-30T09:27:03.828Z,45.7
2016-09-30T09:32:31.319Z,45.5
2016-09-30T09:37:04.230Z,45.4
2016-09-30T09:42:03.848Z,45.3
2016-09-30T09:47:36.752Z,45.3
2016-09-30T09:52:03.657Z,45.4
2016-09-30T09:57:04.224Z,45.5
2016-09-30T10:02:31.902Z,45.4
2016-09-30T10:07:04.151Z,45.3
2016-09-30T10:12:04.029Z,45.6
2016-09-30T10:17:30.493Z,45.4
2016-09-30T10:22:03.794Z,45.6
2016-09-30T10:27:03.978Z,45.5
2016-09-30T10:32:31.922Z,45.3
2016-09-30T10:37:03.842Z,45.5
2016-09-30T10:42:03.583Z,45.5
2016-09-30T10:47:31.632Z,45.4
2016-09-30T10:52:03.580Z,45.4
2016-09-30T10:57:04.143Z,45.2
2016-09-30T11:07:04.146Z,45.2
2016-09-30T11:12:04.047Z,45.5
2016-09-30T11:17:36.802Z,45.3
2016-09-30T11:22:03.882Z,44.9
2016-09-30T11:27:04.266Z,44.7
2016-09-30T11:32:31.993Z,44.2
2016-09-30T11:37:03.775Z,44.2
2016-09-30T11:42:03.479Z,44.4
2016-09-30T11:47:37.311Z,44.4
2016-09-30T11:52:03.639Z,45.2
2016-09-30T11:57:03.751Z,45.2
2016-09-30T12:02:33.147Z,45.4
2016-09-30T12:07:03.704Z,45.6
2016-09-30T12:12:04.305Z,45.6
2016-09-30T12:22:03.708Z,44.8
2016-09-30T12:27:03.936Z,44.8
2016-09-30T12:32:31.684Z,44.6
2016-09-30T12:37:03.511Z,44.3
2016-09-30T12:42:04.175Z,44.3
2016-09-30T12:47:32.398Z,44.3
2016-09-30T12:52:03.635Z,44.3
2016-09-30T12:57:04.232Z,44.4
2016-09-30T13:02:32.104Z,44.7
2016-09-30T13:07:03.725Z,45.1
2016-09-30T13:12:04.259Z,45.0
2016-09-30T13:17:31.877Z,45.3
2016-09-30T13:22:03.629Z,45.4
2016-09-30T13:27:03.604Z,45.4
2016-09-30T13:32:31.328Z,45.8
2016-09-30T13:37:04.034Z,46.2
2016-09-30T13:42:03.775Z,46.2
2016-09-30T13:47:31.840Z,46.1
2016-09-30T13:52:03.758Z,46.0
2016-09-30T13:57:03.927Z,46.0
2016-09-30T20:02:03.638Z,47.5
2016-09-30T20:07:04.290Z,47.4
2016-09-30T20:12:04.446Z,47.5
2016-09-30T20:17:03.917Z,47.6
2016-09-30T20:22:04.067Z,47.5
2016-09-30T20:27:03.668Z,47.4
2016-09-30T20:32:05.142Z,47.4
2016-09-30T20:37:04.312Z,47.3
2016-09-30T20:42:04.325Z,47.3
2016-09-30T20:47:08.781Z,47.3
2016-09-30T20:52:04.191Z,47.3
2016-09-30T20:57:04.203Z,47.4
2016-09-30T21:02:07.136Z,47.4
2016-09-30T21:07:03.474Z,47.4
2016-09-30T21:12:05.138Z,47.4
2016-09-30T21:17:04.558Z,47.3
2016-09-30T21:22:03.869Z,47.3
2016-09-30T21:27:04.159Z,47.3
2016-09-30T21:32:04.016Z,47.5
2016-09-30T21:37:04.045Z,47.4
2016-09-30T21:42:04.736Z,47.4
2016-09-30T21:47:06.671Z,47.5
2016-09-30T21:52:04.537Z,47.5
2016-09-30T21:57:03.886Z,47.6
2016-09-30T22:07:04.135Z,47.3
2016-09-30T22:12:04.018Z,47.4
2016-09-30T22:22:03.829Z,47.1
2016-09-30T22:27:04.120Z,47.3
2016-09-30T22:32:03.796Z,47.5
2016-09-30T22:37:03.737Z,47.5
2016-09-30T22:42:03.961Z,47.4
2016-09-30T22:47:03.725Z,47.5
2016-09-30T22:52:04.162Z,47.6
2016-09-30T22:57:03.602Z,47.5
2016-09-30T23:02:03.965Z,47.5
2016-09-30T23:07:03.584Z,47.6
2016-09-30T23:12:04.143Z,47.5
2016-09-30T23:17:03.714Z,47.5
2016-09-30T23:22:04.026Z,47.5
2016-09-30T23:27:03.605Z,47.5
2016-09-30T23:32:03.951Z,47.6
2016-09-30T23:37:03.552Z,47.6
2016-09-30T23:42:03.874Z,47.5
2016-09-30T23:47:04.086Z,47.5
2016-09-30T23:52:04.264Z,47.5
2016-09-30T23:57:03.558Z,47.5
